Time;durP1;ratioP1;P1;durP2;ratioP2;P2;SDS_P1;SDS_P2;PMS_P1;PMS_P2;Temp;Humidity;BMP_temperature;BMP_pressure;BME280_temperature;BME280_humidity;BME280_pressure;Samples;Min_cycle;Max_cycle;Signal;HPM_P1;HPM_P2
2023/08/02 00:00:35;;;;;;;6.97;3.00;;;14.50;60.00;;;;;;5045251;28;48340;-79
2023/08/02 00:03:01;;;;;;;6.00;2.50;;;14.60;60.00;;;;;;5059409;28;46371;-79
2023/08/02 00:05:27;;;;;;;5.50;2.70;;;14.40;59.90;;;;;;5061103;28;46486;-80
2023/08/02 00:07:52;;;;;;;5.33;2.50;;;14.40;59.90;;;;;;5060885;28;46649;-79
2023/08/02 00:10:18;;;;;;;9.60;2.67;;;14.40;60.00;;;;;;5061335;28;46539;-79
2023/08/02 00:12:43;;;;;;;9.67;3.23;;;14.40;59.80;;;;;;5063238;28;47125;-78
2023/08/02 00:15:09;;;;;;;8.37;3.17;;;14.40;59.90;;;;;;5062566;28;46297;-78
2023/08/02 00:17:35;;;;;;;6.23;2.63;;;14.30;60.00;;;;;;5062668;27;46507;-79
2023/08/02 00:20:01;;;;;;;7.23;3.00;;;14.30;60.00;;;;;;5046934;28;48033;-79
2023/08/02 00:22:26;;;;;;;5.37;2.63;;;14.30;59.80;;;;;;5067403;28;47013;-79
2023/08/02 00:24:52;;;;;;;6.13;2.97;;;14.40;59.50;;;;;;5068275;28;46423;-80
2023/08/02 00:27:17;;;;;;;6.60;3.20;;;14.50;59.20;;;;;;5069259;28;46527;-80
2023/08/02 00:29:43;;;;;;;7.10;3.20;;;14.60;59.00;;;;;;5064820;28;46552;-78
2023/08/02 00:32:08;;;;;;;6.23;3.47;;;14.70;58.80;;;;;;5042966;28;46968;-78
2023/08/02 00:34:34;;;;;;;11.60;3.37;;;14.70;58.60;;;;;;5064361;27;46457;-79
2023/08/02 00:37:01;;;;;;;11.17;3.03;;;14.80;58.30;;;;;;5060819;28;47037;-79
2023/08/02 00:39:26;;;;;;;7.60;3.37;;;14.90;58.30;;;;;;5041919;28;48299;-79
2023/08/02 00:42:02;;;;;;;12.10;3.80;;;15.00;58.20;;;;;;5062806;28;46637;-78
2023/08/02 00:44:27;;;;;;;6.80;3.50;;;14.90;57.90;;;;;;5061017;27;46647;-80
2023/08/02 00:46:53;;;;;;;7.57;3.07;;;15.00;58.00;;;;;;5061421;28;46495;-78
2023/08/02 00:49:19;;;;;;;5.77;3.77;;;15.00;57.90;;;;;;5059201;28;46954;-79
2023/08/02 00:51:45;;;;;;;8.30;3.93;;;15.00;57.90;;;;;;5060882;28;46506;-78
2023/08/02 00:54:10;;;;;;;7.20;3.00;;;15.00;57.70;;;;;;5064122;28;46680;-78
2023/08/02 00:56:37;;;;;;;10.73;3.43;;;15.10;57.80;;;;;;5059144;28;46303;-80
2023/08/02 00:59:03;;;;;;;6.57;3.57;;;15.10;57.70;;;;;;5056429;28;48300;-80
2023/08/02 01:01:29;;;;;;;8.67;3.50;;;15.10;57.40;;;;;;5042144;28;46536;-80
2023/08/02 01:03:55;;;;;;;12.13;3.30;;;15.10;57.30;;;;;;5043027;28;46676;-79
2023/08/02 01:06:44;;;;;;;5.33;3.30;;;15.20;58.50;;;;;;5060933;28;46396;-79
2023/08/02 01:09:34;;;;;;;4.90;3.03;;;15.10;57.30;;;;;;5061067;28;46674;-80
2023/08/02 01:12:09;;;;;;;5.40;3.13;;;15.20;57.30;;;;;;5062088;28;46201;-80
2023/08/02 01:14:41;;;;;;;6.93;3.80;;;15.10;57.10;;;;;;5041678;28;46613;-80
2023/08/02 01:17:08;;;;;;;6.40;3.30;;;15.20;57.20;;;;;;5059442;28;46168;-79
2023/08/02 01:19:33;;;;;;;10.40;3.50;;;15.10;57.10;;;;;;5060236;28;46927;-80
2023/08/02 01:21:59;;;;;;;8.23;3.70;;;15.10;57.20;;;;;;5059842;28;46986;-79
2023/08/02 01:24:32;;;;;;;5.33;3.17;;;15.10;57.10;;;;;;5061140;28;46494;-80
2023/08/02 01:27:00;;;;;;;7.50;3.53;;;15.10;57.20;;;;;;5037896;28;46380;-81
2023/08/02 01:29:29;;;;;;;5.83;3.50;;;15.00;57.30;;;;;;5060857;28;46753;-80
2023/08/02 01:31:56;;;;;;;8.10;4.03;;;14.90;57.40;;;;;;5060174;28;46555;-80
2023/08/02 01:34:23;;;;;;;7.17;3.10;;;14.80;57.80;;;;;;5062178;28;46481;-80
2023/08/02 01:36:48;;;;;;;9.07;4.60;;;14.70;58.00;;;;;;5062958;28;46539;-80
2023/08/02 01:39:15;;;;;;;7.07;3.83;;;14.60;59.40;;;;;;5045990;28;48253;-82
2023/08/02 01:41:41;;;;;;;8.20;3.53;;;14.50;58.40;;;;;;5062202;28;46446;-81
2023/08/02 01:44:07;;;;;;;7.30;3.30;;;14.40;58.60;;;;;;5062777;28;46495;-81
2023/08/02 01:46:32;;;;;;;6.37;3.97;;;14.50;58.90;;;;;;5063007;28;46947;-82
2023/08/02 01:48:58;;;;;;;8.00;3.50;;;14.30;58.90;;;;;;5061021;28;48355;-78
2023/08/02 01:51:24;;;;;;;11.00;3.93;;;14.20;58.90;;;;;;5061605;28;45874;-79
2023/08/02 01:53:50;;;;;;;7.07;4.03;;;14.10;58.80;;;;;;5061661;28;46451;-80
2023/08/02 01:56:16;;;;;;;9.20;4.37;;;14.20;59.10;;;;;;5061068;28;46792;-84
2023/08/02 01:58:42;;;;;;;13.10;4.20;;;14.00;59.00;;;;;;5041972;28;48818;-80
2023/08/02 02:01:07;;;;;;;7.20;3.60;;;14.00;59.10;;;;;;5042782;28;46802;-80
2023/08/02 02:03:33;;;;;;;7.73;4.80;;;14.00;59.10;;;;;;5061734;28;46574;-83
2023/08/02 02:05:59;;;;;;;8.50;3.47;;;13.90;58.80;;;;;;5063444;28;46717;-81
2023/08/02 02:08:25;;;;;;;11.60;3.50;;;13.90;58.90;;;;;;5045868;28;48403;-83
2023/08/02 02:10:52;;;;;;;7.57;3.73;;;13.90;59.00;;;;;;5050354;28;46507;-84
2023/08/02 02:13:18;;;;;;;5.77;4.10;;;13.80;58.80;;;;;;5066886;28;46377;-84
2023/08/02 02:15:44;;;;;;;7.87;4.27;;;13.80;58.80;;;;;;5066280;28;46535;-82
2023/08/02 02:18:09;;;;;;;8.87;4.13;;;13.70;58.90;;;;;;5061107;28;46316;-81
2023/08/02 02:20:35;;;;;;;13.00;4.00;;;13.70;58.90;;;;;;5061129;28;46496;-81
2023/08/02 02:23:01;;;;;;;7.47;4.27;;;13.60;58.80;;;;;;5063343;28;46478;-81
2023/08/02 02:25:26;;;;;;;6.60;3.93;;;13.60;59.00;;;;;;5058821;28;46760;-82
2023/08/02 02:27:52;;;;;;;6.80;4.27;;;13.60;59.10;;;;;;5061018;27;46568;-80
2023/08/02 02:30:18;;;;;;;6.83;3.50;;;13.50;59.10;;;;;;5060198;28;46387;-83
2023/08/02 02:32:43;;;;;;;10.50;4.00;;;13.40;59.10;;;;;;5061941;28;46501;-81
2023/08/02 02:35:12;;;;;;;9.47;4.63;;;13.40;59.40;;;;;;5058779;28;46360;-79
2023/08/02 02:37:38;;;;;;;13.20;4.23;;;13.40;59.50;;;;;;5043225;28;47934;-81
2023/08/02 02:40:08;;;;;;;9.20;3.90;;;13.30;59.40;;;;;;5060053;28;46581;-81
2023/08/02 02:42:33;;;;;;;13.40;4.17;;;13.30;59.40;;;;;;5062092;28;46617;-79
2023/08/02 02:44:59;;;;;;;7.10;3.73;;;13.30;59.30;;;;;;5061781;28;46584;-80
2023/08/02 02:47:24;;;;;;;8.53;4.40;;;13.30;59.20;;;;;;5060274;28;46976;-80
2023/08/02 02:49:50;;;;;;;8.80;4.33;;;13.30;59.40;;;;;;5061286;28;46422;-81
2023/08/02 02:52:15;;;;;;;9.50;4.10;;;13.20;59.40;;;;;;5063680;28;46431;-81
2023/08/02 02:54:41;;;;;;;6.90;4.40;;;13.30;59.40;;;;;;5064056;28;46300;-79
2023/08/02 02:57:07;;;;;;;9.77;5.23;;;13.20;59.50;;;;;;5072375;28;47347;-81
2023/08/02 02:59:32;;;;;;;10.00;4.77;;;13.10;59.40;;;;;;5063467;28;46209;-81
2023/08/02 03:01:58;;;;;;;9.83;4.10;;;13.00;59.80;;;;;;5065062;28;46317;-81
2023/08/02 03:04:25;;;;;;;6.80;4.47;;;13.00;59.60;;;;;;5067950;28;46510;-82
2023/08/02 03:06:51;;;;;;;9.10;4.53;;;13.10;59.90;;;;;;5053107;28;47992;-81
2023/08/02 03:09:17;;;;;;;9.07;3.97;;;12.90;59.80;;;;;;5069241;28;46565;-81
2023/08/02 03:11:42;;;;;;;10.03;4.07;;;12.90;59.80;;;;;;5065869;28;47029;-79
2023/08/02 03:14:08;;;;;;;9.60;4.60;;;12.90;59.70;;;;;;5067823;28;46328;-81
2023/08/02 03:16:34;;;;;;;11.80;4.83;;;12.90;59.80;;;;;;5068472;28;46369;-81
2023/08/02 03:18:59;;;;;;;17.27;4.43;;;12.90;59.60;;;;;;5068892;28;47137;-81
2023/08/02 03:21:25;;;;;;;11.70;4.03;;;12.90;59.70;;;;;;5069261;28;46470;-81
2023/08/02 03:23:50;;;;;;;6.60;4.30;;;12.80;59.60;;;;;;5073655;28;46228;-81
2023/08/02 03:26:16;;;;;;;8.30;4.40;;;12.80;59.50;;;;;;5066866;28;46383;-82
2023/08/02 03:28:42;;;;;;;8.60;4.40;;;12.80;59.50;;;;;;5066823;28;46214;-81
2023/08/02 03:31:07;;;;;;;11.60;5.30;;;12.90;59.40;;;;;;5067581;28;46404;-82
2023/08/02 03:33:33;;;;;;;7.70;4.47;;;12.90;59.30;;;;;;5070442;28;46245;-80
2023/08/02 03:35:59;;;;;;;12.23;4.77;;;13.00;59.30;;;;;;5067113;28;47697;-81
2023/08/02 03:38:25;;;;;;;15.23;4.80;;;12.90;59.20;;;;;;5054337;28;46491;-81
2023/08/02 03:40:52;;;;;;;7.80;4.30;;;12.90;59.30;;;;;;5053207;28;46407;-80
2023/08/02 03:43:18;;;;;;;7.57;3.80;;;12.90;59.40;;;;;;5068795;28;46795;-82
2023/08/02 03:45:43;;;;;;;10.37;4.40;;;12.80;59.40;;;;;;5070681;28;46442;-81
2023/08/02 03:48:09;;;;;;;10.33;4.73;;;12.80;59.40;;;;;;5067177;28;46328;-82
2023/08/02 03:50:34;;;;;;;9.07;4.50;;;12.80;59.40;;;;;;5048620;28;46635;-82
2023/08/02 03:53:00;;;;;;;8.90;4.50;;;12.90;59.30;;;;;;5069199;28;46340;-81
2023/08/02 03:55:26;;;;;;;7.97;5.03;;;13.00;59.00;;;;;;5066529;28;45991;-81
2023/08/02 03:57:52;;;;;;;9.97;4.23;;;13.10;58.80;;;;;;5069412;28;46504;-81
2023/08/02 04:00:17;;;;;;;8.43;4.70;;;13.30;58.80;;;;;;5068942;28;46415;-79
2023/08/02 04:02:43;;;;;;;8.70;4.90;;;13.50;59.50;;;;;;5073096;28;46563;-82
2023/08/02 04:05:11;;;;;;;8.27;4.17;;;13.50;58.30;;;;;;5068543;28;46428;-82
2023/08/02 04:07:37;;;;;;;7.00;4.30;;;13.60;58.20;;;;;;5062191;28;46571;-81
2023/08/02 04:10:03;;;;;;;6.67;3.80;;;13.70;57.90;;;;;;5067168;28;46530;-82
2023/08/02 04:12:28;;;;;;;15.43;4.93;;;13.80;57.80;;;;;;5066432;28;45744;-80
2023/08/02 04:14:54;;;;;;;8.87;4.53;;;13.90;57.50;;;;;;5066443;28;47564;-80
2023/08/02 04:17:20;;;;;;;6.97;4.10;;;14.00;57.40;;;;;;5068987;28;46420;-79
2023/08/02 04:19:46;;;;;;;13.70;4.03;;;14.00;57.30;;;;;;5065755;28;46299;-80
2023/08/02 04:22:11;;;;;;;9.07;3.97;;;14.10;57.30;;;;;;5066530;28;46568;-81
2023/08/02 04:24:37;;;;;;;6.17;3.53;;;14.20;57.00;;;;;;5065159;28;46399;-80
2023/08/02 04:27:03;;;;;;;6.37;3.83;;;14.30;56.80;;;;;;5066106;28;46371;-80
2023/08/02 04:29:29;;;;;;;8.77;3.30;;;14.40;56.40;;;;;;5064395;28;46797;-81
2023/08/02 04:31:55;;;;;;;6.63;3.70;;;14.50;57.00;;;;;;5069576;28;46392;-80
2023/08/02 04:34:20;;;;;;;5.83;3.30;;;14.60;55.90;;;;;;5046803;28;48254;-80
2023/08/02 04:36:46;;;;;;;9.40;3.70;;;14.60;55.90;;;;;;5047341;28;46336;-80
2023/08/02 04:39:12;;;;;;;8.03;3.43;;;14.80;56.10;;;;;;5048397;28;46463;-80
2023/08/02 04:41:37;;;;;;;6.13;3.40;;;14.90;56.10;;;;;;5067881;28;46514;-80
2023/08/02 04:44:03;;;;;;;6.70;3.77;;;14.90;55.70;;;;;;5065849;28;47099;-80
2023/08/02 04:46:29;;;;;;;10.20;3.83;;;15.00;55.40;;;;;;5062872;28;46455;-80
2023/08/02 04:48:55;;;;;;;6.70;4.00;;;15.10;55.30;;;;;;5068617;28;46363;-80
2023/08/02 04:51:20;;;;;;;14.10;3.80;;;15.10;55.10;;;;;;5061935;28;46668;-80
2023/08/02 04:53:49;;;;;;;6.10;3.40;;;15.10;55.00;;;;;;5064560;28;47286;-81
2023/08/02 04:56:16;;;;;;;14.40;4.27;;;15.20;54.90;;;;;;5064548;28;46328;-81
2023/08/02 04:58:42;;;;;;;7.20;3.97;;;15.20;54.70;;;;;;5062197;28;46375;-82
2023/08/02 05:01:08;;;;;;;8.23;3.60;;;15.30;54.50;;;;;;5067256;28;46522;-81
2023/08/02 05:03:34;;;;;;;7.40;3.50;;;15.40;54.40;;;;;;5064292;28;46859;-82
2023/08/02 05:06:04;;;;;;;8.33;3.40;;;15.50;54.10;;;;;;5040942;28;47003;-79
2023/08/02 05:08:31;;;;;;;7.13;3.50;;;15.50;53.80;;;;;;5063419;28;46644;-80
2023/08/02 05:10:57;;;;;;;7.20;3.80;;;15.70;53.60;;;;;;5060180;28;46514;-80
2023/08/02 05:13:24;;;;;;;5.97;3.23;;;15.70;53.30;;;;;;5051896;28;48240;-80
2023/08/02 05:15:50;;;;;;;6.30;2.90;;;15.90;52.90;;;;;;5066195;28;46312;-81
2023/08/02 05:18:16;;;;;;;15.63;3.57;;;15.90;52.50;;;;;;5047008;28;46537;-80
2023/08/02 05:20:41;;;;;;;5.63;3.47;;;16.00;52.40;;;;;;5046407;28;46354;-80
2023/08/02 05:23:07;;;;;;;7.70;3.17;;;16.10;52.30;;;;;;5064643;28;47170;-77
2023/08/02 05:25:34;;;;;;;7.40;2.80;;;16.10;52.20;;;;;;5060268;28;46713;-79
2023/08/02 05:28:00;;;;;;;7.03;3.40;;;16.10;52.20;;;;;;5061430;28;46461;-80
2023/08/02 05:30:30;;;;;;;5.27;2.90;;;16.10;52.10;;;;;;5040222;28;46644;-79
2023/08/02 05:32:56;;;;;;;6.40;3.63;;;16.10;52.10;;;;;;5063582;28;46496;-79
2023/08/02 05:35:25;;;;;;;8.67;5.03;;;16.10;52.00;;;;;;5060868;28;46445;-79
2023/08/02 05:37:52;;;;;;;5.47;3.27;;;16.10;51.90;;;;;;5060180;28;46511;-80
2023/08/02 05:40:17;;;;;;;7.13;2.70;;;16.20;51.60;;;;;;5064225;28;46674;-80
2023/08/02 05:42:43;;;;;;;6.47;3.43;;;16.20;51.30;;;;;;5061075;28;46499;-81
2023/08/02 05:45:10;;;;;;;7.97;3.03;;;16.30;50.90;;;;;;5066415;28;47057;-80
2023/08/02 05:47:35;;;;;;;5.77;3.40;;;16.40;50.50;;;;;;5042970;28;46549;-81
2023/08/02 05:50:01;;;;;;;10.30;3.70;;;16.40;50.40;;;;;;5062279;28;46698;-82
2023/08/02 05:52:27;;;;;;;5.17;3.13;;;16.40;50.30;;;;;;5065777;28;45989;-79
2023/08/02 05:54:52;;;;;;;6.30;2.87;;;16.50;50.40;;;;;;5059771;28;46471;-80
2023/08/02 05:57:18;;;;;;;4.70;2.83;;;16.50;50.10;;;;;;5058792;28;46319;-79
2023/08/02 05:59:43;;;;;;;7.60;2.90;;;16.50;50.10;;;;;;5059043;28;46692;-83
2023/08/02 06:02:09;;;;;;;5.87;2.83;;;16.40;50.30;;;;;;5055102;28;47309;-81
2023/08/02 06:04:36;;;;;;;4.97;2.80;;;16.50;50.20;;;;;;5039243;28;45858;-83
2023/08/02 06:07:05;;;;;;;6.83;3.07;;;16.40;50.10;;;;;;5060235;28;46721;-83
2023/08/02 06:09:31;;;;;;;6.60;3.40;;;16.50;50.10;;;;;;5055702;28;46891;-84
2023/08/02 06:11:57;;;;;;;7.17;2.77;;;16.50;50.10;;;;;;5044183;28;48592;-83
2023/08/02 06:14:22;;;;;;;7.00;2.90;;;16.60;50.20;;;;;;5049121;28;46674;-83
2023/08/02 06:16:48;;;;;;;27.13;11.30;;;16.50;50.10;;;;;;5067710;28;46441;-84
2023/08/02 06:19:14;;;;;;;19.17;5.43;;;16.60;50.30;;;;;;5068276;28;46537;-83
2023/08/02 06:21:40;;;;;;;9.97;4.00;;;16.40;51.60;;;;;;5067306;28;49684;-83
2023/08/02 06:24:06;;;;;;;8.07;3.40;;;16.50;50.30;;;;;;5049374;28;46921;-84
2023/08/02 06:26:32;;;;;;;6.77;3.67;;;16.50;51.50;;;;;;5052666;28;47807;-81
2023/08/02 06:28:57;;;;;;;10.33;3.00;;;16.50;50.30;;;;;;5063759;28;46792;-84
2023/08/02 06:31:23;;;;;;;8.07;3.57;;;16.40;50.50;;;;;;5061203;28;48156;-82
2023/08/02 06:33:49;;;;;;;4.90;3.00;;;16.40;51.80;;;;;;5060744;28;47033;-82
2023/08/02 06:36:14;;;;;;;6.00;3.47;;;16.40;50.70;;;;;;5053871;28;46647;-84
2023/08/02 06:38:40;;;;;;;7.87;3.17;;;16.30;51.20;;;;;;5063469;28;46008;-84
2023/08/02 06:41:06;;;;;;;5.77;3.23;;;16.30;51.30;;;;;;5063333;28;47063;-84
2023/08/02 06:43:32;;;;;;;8.70;3.00;;;16.30;51.60;;;;;;5054154;28;46633;-86
2023/08/02 06:45:57;;;;;;;9.93;2.93;;;16.30;51.60;;;;;;5060654;28;46499;-83
2023/08/02 06:48:25;;;;;;;7.67;3.33;;;16.30;51.60;;;;;;5063160;28;46518;-84
2023/08/02 06:50:51;;;;;;;6.33;3.43;;;16.40;51.90;;;;;;5064857;28;46674;-85
2023/08/02 06:53:17;;;;;;;6.90;3.60;;;16.40;51.80;;;;;;5065568;28;46907;-85
2023/08/02 06:55:43;;;;;;;5.37;2.97;;;16.50;51.50;;;;;;5046735;28;46538;-82
2023/08/02 06:58:08;;;;;;;4.47;2.70;;;16.50;51.40;;;;;;5066104;28;46647;-85
2023/08/02 07:00:34;;;;;;;8.07;4.07;;;16.60;51.10;;;;;;5061044;28;46472;-83
2023/08/02 07:03:00;;;;;;;6.47;3.70;;;16.80;51.50;;;;;;5058138;28;46415;-83
2023/08/02 07:05:28;;;;;;;8.53;3.30;;;16.70;51.40;;;;;;5055599;28;46047;-83
2023/08/02 07:07:55;;;;;;;9.90;5.33;;;16.60;51.60;;;;;;5063493;28;45969;-85
2023/08/02 07:10:21;;;;;;;6.73;3.43;;;16.70;51.70;;;;;;5061840;28;48878;-81
2023/08/02 07:12:48;;;;;;;6.40;3.40;;;16.70;51.80;;;;;;5064602;28;46515;-86
2023/08/02 07:15:14;;;;;;;5.43;3.07;;;16.70;51.80;;;;;;5067915;28;46428;-85
2023/08/02 07:17:40;;;;;;;5.57;3.20;;;16.80;51.90;;;;;;5062108;28;46035;-86
2023/08/02 07:20:06;;;;;;;7.00;3.37;;;16.90;51.80;;;;;;5062604;28;47303;-83
2023/08/02 07:22:32;;;;;;;5.40;3.30;;;17.00;51.50;;;;;;5060102;28;46316;-85
2023/08/02 07:24:57;;;;;;;4.87;2.73;;;17.00;51.40;;;;;;5059163;28;46472;-83
2023/08/02 07:27:23;;;;;;;6.60;3.03;;;17.10;51.20;;;;;;5058782;28;46580;-84
2023/08/02 07:29:49;;;;;;;7.67;3.20;;;17.20;51.50;;;;;;5059441;28;46555;-86
2023/08/02 07:32:15;;;;;;;7.73;3.73;;;17.00;51.60;;;;;;5060337;28;46848;-85
2023/08/02 07:34:40;;;;;;;6.10;3.03;;;17.00;51.90;;;;;;5043885;28;46399;-83
2023/08/02 07:37:06;;;;;;;6.13;2.97;;;17.10;51.80;;;;;;5044908;28;46963;-84
2023/08/02 07:39:32;;;;;;;8.80;3.30;;;17.10;52.00;;;;;;5060934;28;47042;-83
2023/08/02 07:41:57;;;;;;;6.37;3.77;;;17.10;51.90;;;;;;5058162;28;46720;-82
2023/08/02 07:44:23;;;;;;;6.97;3.47;;;17.20;51.90;;;;;;5059096;28;46353;-85
2023/08/02 07:46:50;;;;;;;6.10;3.40;;;17.30;52.10;;;;;;5039722;28;46860;-83
2023/08/02 07:49:16;;;;;;;11.53;3.70;;;17.40;51.80;;;;;;5058807;28;46632;-82
2023/08/02 07:51:41;;;;;;;11.00;3.40;;;17.50;51.60;;;;;;5059363;28;46313;-84
2023/08/02 07:54:07;;;;;;;5.33;2.90;;;17.60;51.40;;;;;;5061325;28;46506;-83
2023/08/02 07:56:32;;;;;;;6.63;3.20;;;17.70;51.00;;;;;;5058881;28;46747;-84
2023/08/02 07:58:58;;;;;;;5.50;2.93;;;17.80;51.10;;;;;;5058441;28;46495;-86
2023/08/02 08:01:24;;;;;;;5.77;2.77;;;17.80;51.30;;;;;;5058429;28;46506;-82
2023/08/02 08:03:49;;;;;;;8.20;3.23;;;17.70;51.30;;;;;;5054157;28;46460;-83
2023/08/02 08:06:16;;;;;;;8.80;3.13;;;17.60;51.50;;;;;;5022079;28;46558;-84
2023/08/02 08:08:42;;;;;;;6.00;3.30;;;17.60;51.80;;;;;;5057093;28;47350;-83
2023/08/02 08:11:08;;;;;;;7.80;3.07;;;17.70;52.00;;;;;;5060938;28;46437;-85
2023/08/02 08:13:34;;;;;;;5.07;3.20;;;17.60;52.00;;;;;;5058012;28;45920;-84
2023/08/02 08:16:00;;;;;;;10.80;2.90;;;17.70;51.80;;;;;;5037253;28;46263;-85
2023/08/02 08:18:27;;;;;;;9.30;2.93;;;17.80;52.10;;;;;;5060171;28;46466;-84
2023/08/02 08:20:52;;;;;;;5.43;3.10;;;17.90;52.40;;;;;;5059474;28;47097;-85
2023/08/02 08:23:18;;;;;;;9.73;3.43;;;17.80;52.10;;;;;;5034414;28;46659;-86
2023/08/02 08:25:43;;;;;;;5.97;3.13;;;17.90;51.90;;;;;;5044393;28;46239;-82
2023/08/02 08:28:09;;;;;;;7.80;3.50;;;17.90;52.00;;;;;;5044076;28;49007;-86
2023/08/02 08:30:34;;;;;;;9.30;3.47;;;18.00;52.10;;;;;;5037067;28;46723;-85
2023/08/02 08:33:00;;;;;;;5.37;2.60;;;18.00;52.00;;;;;;5059589;28;46767;-86
2023/08/02 08:35:25;;;;;;;8.73;2.73;;;18.00;52.00;;;;;;5062569;28;46573;-87
2023/08/02 08:37:53;;;;;;;8.67;3.47;;;17.90;52.70;;;;;;5041010;28;48842;-85
2023/08/02 08:40:19;;;;;;;6.33;2.83;;;17.80;52.70;;;;;;5060388;28;46522;-83
2023/08/02 08:42:50;;;;;;;5.40;2.67;;;17.80;53.20;;;;;;5039960;28;46211;-82
2023/08/02 08:45:19;;;;;;;7.80;3.23;;;17.80;52.90;;;;;;5057524;28;46495;-85
2023/08/02 08:47:45;;;;;;;5.90;3.40;;;17.90;53.00;;;;;;5057154;28;47065;-80
2023/08/02 08:50:11;;;;;;;5.23;3.47;;;17.80;53.20;;;;;;5057571;28;47089;-81
2023/08/02 08:52:39;;;;;;;8.83;3.10;;;17.80;53.20;;;;;;5058703;28;46686;-82
2023/08/02 08:55:08;;;;;;;7.57;3.37;;;17.90;53.30;;;;;;5040798;28;46464;-82
2023/08/02 08:57:35;;;;;;;5.57;2.87;;;17.90;53.30;;;;;;5053425;28;47972;-81
2023/08/02 09:00:03;;;;;;;5.63;3.20;;;17.80;53.60;;;;;;5039842;28;46959;-85
2023/08/02 09:02:31;;;;;;;5.63;3.07;;;17.80;54.00;;;;;;5041859;28;46432;-82
2023/08/02 09:04:57;;;;;;;6.40;3.33;;;17.80;53.80;;;;;;5062342;28;46495;-83
2023/08/02 09:07:23;;;;;;;8.13;3.10;;;17.90;54.00;;;;;;5055533;28;48201;-82
2023/08/02 09:09:48;;;;;;;8.30;3.00;;;17.90;54.10;;;;;;5040755;28;46554;-80
2023/08/02 09:12:14;;;;;;;6.40;3.33;;;17.90;53.90;;;;;;5061161;28;46517;-83
2023/08/02 09:15:02;;;;;;;7.30;2.77;;;17.90;54.20;;;;;;5057692;28;46426;-81
2023/08/02 09:17:43;;;;;;;6.17;3.20;;;17.70;54.50;;;;;;5039121;28;48273;-82
2023/08/02 09:20:09;;;;;;;9.50;3.67;;;17.70;54.60;;;;;;5057661;28;46435;-84
2023/08/02 09:22:35;;;;;;;6.10;3.10;;;17.70;54.60;;;;;;5048385;28;46800;-80
2023/08/02 09:25:07;;;;;;;9.47;3.23;;;17.70;55.00;;;;;;5055712;28;46589;-81
2023/08/02 09:27:34;;;;;;;6.07;3.20;;;17.70;55.00;;;;;;5043319;28;48615;-81
2023/08/02 09:29:59;;;;;;;7.00;2.80;;;17.70;55.10;;;;;;5041560;28;47073;-81
2023/08/02 09:32:25;;;;;;;7.30;3.20;;;17.70;55.20;;;;;;5058005;28;46947;-83
2023/08/02 09:34:53;;;;;;;7.20;2.63;;;17.70;54.90;;;;;;5056047;28;45965;-78
2023/08/02 09:37:34;;;;;;;5.70;3.37;;;17.80;54.60;;;;;;5038335;28;48657;-82
2023/08/02 09:40:01;;;;;;;5.77;3.17;;;17.90;54.50;;;;;;5055418;28;45784;-84
2023/08/02 09:42:27;;;;;;;9.13;3.40;;;17.80;54.60;;;;;;5038097;28;46796;-84
2023/08/02 09:45:01;;;;;;;8.07;3.20;;;17.70;54.40;;;;;;5036491;28;46052;-81
2023/08/02 09:47:27;;;;;;;8.83;2.97;;;17.70;54.70;;;;;;5035415;28;49544;-82
2023/08/02 09:50:05;;;;;;;4.50;2.47;;;17.70;55.00;;;;;;5055888;28;46352;-82
2023/08/02 09:52:30;;;;;;;7.00;3.40;;;17.60;55.00;;;;;;5057265;28;46412;-84
2023/08/02 09:54:56;;;;;;;5.77;3.20;;;17.60;55.30;;;;;;5058038;28;46483;-82
2023/08/02 09:57:26;;;;;;;7.10;3.37;;;17.70;55.90;;;;;;5061629;28;47260;-85
2023/08/02 09:59:58;;;;;;;11.53;3.10;;;17.60;56.00;;;;;;5060038;28;46545;-80
2023/08/02 10:02:25;;;;;;;7.00;3.50;;;17.60;55.50;;;;;;5059629;28;46114;-81
2023/08/02 10:04:55;;;;;;;5.00;3.37;;;17.80;55.10;;;;;;5059616;28;46305;-82
2023/08/02 10:07:23;;;;;;;6.17;3.43;;;17.90;55.10;;;;;;5043268;28;48628;-83
2023/08/02 10:09:51;;;;;;;7.53;3.33;;;18.10;54.50;;;;;;5057980;28;46409;-80
2023/08/02 10:12:19;;;;;;;5.73;3.50;;;18.50;53.40;;;;;;5058791;28;46558;-81
2023/08/02 10:14:46;;;;;;;7.50;3.30;;;19.10;51.90;;;;;;5037500;28;46894;-81
2023/08/02 10:17:12;;;;;;;5.90;2.87;;;19.50;50.20;;;;;;5055949;28;46514;-82
2023/08/02 10:19:39;;;;;;;5.00;2.83;;;19.80;49.30;;;;;;5058127;28;45907;-80
2023/08/02 10:22:04;;;;;;;6.60;3.40;;;19.80;49.00;;;;;;5059883;28;46543;-79
2023/08/02 10:24:30;;;;;;;7.13;3.17;;;19.90;49.00;;;;;;5045074;28;46673;-81
2023/08/02 10:26:57;;;;;;;5.53;2.97;;;20.20;47.90;;;;;;5060066;28;46787;-81
2023/08/02 10:29:26;;;;;;;7.83;3.60;;;20.40;47.00;;;;;;5056987;28;46459;-82
2023/08/02 10:31:52;;;;;;;4.50;2.60;;;20.50;46.50;;;;;;5057912;28;47052;-81
2023/08/02 10:34:36;;;;;;;8.50;3.67;;;20.70;45.60;;;;;;5060396;28;46836;-79
2023/08/02 10:37:02;;;;;;;5.67;3.07;;;20.90;44.90;;;;;;5057495;28;47665;-81
2023/08/02 10:39:46;;;;;;;6.73;2.80;;;21.20;44.40;;;;;;5058375;28;46666;-81
2023/08/02 10:42:12;;;;;;;9.07;3.27;;;21.60;42.90;;;;;;5058636;28;46463;-80
2023/08/02 10:44:57;;;;;;;5.00;3.17;;;22.10;41.80;;;;;;5042529;28;47056;-83
2023/08/02 10:47:28;;;;;;;10.10;2.80;;;22.30;40.70;;;;;;5059573;28;46846;-82
2023/08/02 10:49:54;;;;;;;5.43;2.27;;;22.60;39.80;;;;;;5058529;28;46424;-78
2023/08/02 10:52:29;;;;;;;5.97;2.50;;;22.80;39.40;;;;;;5063267;28;46478;-80
2023/08/02 10:55:16;;;;;;;4.50;2.40;;;23.10;37.60;;;;;;5041403;28;46637;-78
2023/08/02 10:58:05;;;;;;;10.00;2.70;;;23.30;37.10;;;;;;5059222;28;46695;-82
2023/08/02 11:00:33;;;;;;;4.00;2.30;;;23.40;36.60;;;;;;5040425;28;45927;-81
2023/08/02 11:03:00;;;;;;;9.67;2.67;;;23.40;36.40;;;;;;5058228;28;46380;-81
2023/08/02 11:05:43;;;;;;;5.73;2.50;;;23.40;35.50;;;;;;5057366;28;46534;-81
2023/08/02 11:08:09;;;;;;;5.67;2.87;;;23.50;35.60;;;;;;5056689;28;46959;-83
2023/08/02 11:10:52;;;;;;;4.10;2.30;;;23.70;35.10;;;;;;5055826;28;46869;-80
2023/08/02 11:13:19;;;;;;;7.50;2.90;;;23.60;34.40;;;;;;5037250;28;46397;-79
2023/08/02 11:15:45;;;;;;;4.33;2.27;;;23.50;35.00;;;;;;5056377;28;47231;-81
2023/08/02 11:18:11;;;;;;;4.90;2.30;;;23.60;34.30;;;;;;5059830;28;46396;-81
2023/08/02 11:20:38;;;;;;;4.57;2.07;;;23.80;33.40;;;;;;5058858;28;46411;-83
2023/08/02 11:23:24;;;;;;;4.40;2.10;;;23.80;32.40;;;;;;5060582;28;46175;-82
2023/08/02 11:26:14;;;;;;;4.37;2.00;;;23.70;31.70;;;;;;5060334;28;46494;-79
2023/08/02 11:28:40;;;;;;;5.47;2.70;;;23.90;31.50;;;;;;5056042;28;46557;-82
2023/08/02 11:31:06;;;;;;;3.93;2.00;;;24.00;31.10;;;;;;5061357;28;45831;-80
2023/08/02 11:33:32;;;;;;;4.10;2.10;;;24.20;30.90;;;;;;5060462;28;45826;-79
2023/08/02 11:35:58;;;;;;;4.70;2.40;;;23.90;30.50;;;;;;5058413;28;47164;-80
2023/08/02 11:38:25;;;;;;;3.97;1.70;;;23.60;31.10;;;;;;5058935;28;47042;-80
2023/08/02 11:40:51;;;;;;;4.00;2.03;;;23.50;31.20;;;;;;5059694;28;46497;-81
2023/08/02 11:43:16;;;;;;;5.97;2.07;;;23.40;31.80;;;;;;5038748;28;46568;-80
2023/08/02 11:45:42;;;;;;;5.10;2.07;;;23.30;32.10;;;;;;5059023;28;46309;-80
2023/08/02 11:48:25;;;;;;;5.73;2.20;;;23.40;32.70;;;;;;5057215;28;46370;-80
2023/08/02 11:50:53;;;;;;;6.33;2.07;;;23.40;33.00;;;;;;5057774;28;46705;-79
2023/08/02 11:53:19;;;;;;;3.90;1.97;;;23.50;32.70;;;;;;5057746;28;46416;-81
2023/08/02 11:55:45;;;;;;;4.47;2.40;;;23.60;32.70;;;;;;5058264;28;46574;-78
2023/08/02 11:58:11;;;;;;;4.90;2.10;;;23.70;33.20;;;;;;5058668;28;46573;-78
2023/08/02 12:00:37;;;;;;;4.50;2.43;;;23.80;32.80;;;;;;5058485;28;46821;-80
2023/08/02 12:03:09;;;;;;;4.13;1.90;;;23.90;32.50;;;;;;5037729;28;46477;-78
2023/08/02 12:05:35;;;;;;;4.00;1.93;;;23.90;31.50;;;;;;5059186;28;45970;-83
2023/08/02 12:08:17;;;;;;;3.97;2.23;;;24.10;31.70;;;;;;5040024;28;47020;-80
2023/08/02 12:10:43;;;;;;;3.87;2.00;;;24.20;31.90;;;;;;5041309;28;47351;-80
2023/08/02 12:13:12;;;;;;;8.13;2.10;;;24.20;32.00;;;;;;5058866;28;46480;-81
2023/08/02 12:15:38;;;;;;;5.47;2.63;;;24.40;31.90;;;;;;5058260;28;46559;-83
2023/08/02 12:18:05;;;;;;;5.00;2.63;;;24.40;32.00;;;;;;5044931;28;48395;-84
2023/08/02 12:20:33;;;;;;;3.67;1.87;;;24.50;32.20;;;;;;5058401;28;46414;-82
2023/08/02 12:22:59;;;;;;;3.73;2.23;;;24.60;32.60;;;;;;5057886;28;46662;-84
2023/08/02 12:25:24;;;;;;;4.70;2.30;;;24.70;32.90;;;;;;5042178;28;47260;-81
2023/08/02 12:28:06;;;;;;;3.93;2.17;;;24.80;33.00;;;;;;5062392;28;46140;-81
2023/08/02 12:30:32;;;;;;;5.43;2.70;;;24.80;32.70;;;;;;5061096;28;46416;-83
2023/08/02 12:32:58;;;;;;;6.17;2.90;;;24.90;32.60;;;;;;5062630;28;46741;-79
2023/08/02 12:35:24;;;;;;;4.60;2.53;;;25.00;32.40;;;;;;5064210;28;46426;-84
2023/08/02 12:37:53;;;;;;;4.20;2.40;;;25.10;31.80;;;;;;5066282;28;48455;-82
2023/08/02 12:40:19;;;;;;;5.23;2.53;;;25.10;31.40;;;;;;5059100;28;46459;-82
2023/08/02 12:42:44;;;;;;;4.00;2.10;;;25.20;31.50;;;;;;5039050;28;46772;-83
2023/08/02 12:45:13;;;;;;;3.90;1.90;;;25.20;31.60;;;;;;5056803;28;46762;-79